Stena Impression — 2IDH5 — position and weather

sailwx.info

Track history (hours):
 
Tides and Currents Weather Stations Pressure Air Temp Water Temp Dewpoint Dewpoint Depression Visibility Wind Speed Wind Dir Waves Ship Positions

Stena Impression

Last reported at 2018-Feb-12 23:56 UTC. Time now 2018-Feb-19 13:43 UTC.
Position N 01°17' E 103°22'.

Length 183 m; draft 7.6 m.

Type: Ship. MMSI: 235108755.

Date/timePositionNaut miles runAvg speedWind from/ knotsBaromVisibWave heightAir tempDewpointWater temp
2018-Feb-12 23:56N 01°17' E 103°22'511.7
2018-Feb-12 23:29N 01°14' E 103°26'713.4
2018-Feb-12 22:59N 01°12' E 103°33'612.6
2018-Feb-12 22:30N 01°11' E 103°39'510.2
2018-Feb-12 21:59N 01°09' E 103°43'511.2
2018-Feb-12 21:31N 01°11' E 103°48'814.7
2018-Feb-12 20:59N 01°14' E 103°55'611.4
2018-Feb-12 20:29N 01°16' E 104°01'  
2018-Feb-07 08:14N 22°43' E 121°44'9012.1
2018-Feb-07 00:48N 24°09' E 122°13'411.5
2018-Feb-07 00:28N 24°12' E 122°15'511.5
2018-Feb-07 00:00N 24°17' E 122°17'611.6
2018-Feb-06 23:30N 24°22' E 122°20'611.4
2018-Feb-06 23:00N 24°28' E 122°21'611.8
2018-Feb-06 22:30N 24°33' E 122°23'611.5
2018-Feb-06 22:00N 24°39' E 122°25'611.8
2018-Feb-06 21:30N 24°44' E 122°27'611.9
2018-Feb-06 21:00N 24°50' E 122°30'611.8
2018-Feb-06 20:30N 24°55' E 122°32'611.4
2018-Feb-06 20:00N 25°01' E 122°34'611.4
2018-Feb-06 19:30N 25°06' E 122°36'36011.2
2018-Feb-05 11:31N 31°06' E 122°32'015.4
2018-Feb-05 11:30N 31°06' E 122°31'612.1
2018-Feb-05 10:58N 31°06' E 122°24'614.1
2018-Feb-05 10:30N 31°07' E 122°16'814.5
2018-Feb-05 09:59N 31°12' E 122°09'714.5
2018-Feb-05 09:30N 31°14' E 122°02'612.8
2018-Feb-05 09:00N 31°16' E 121°54'2210.9
2018-Feb-05 06:58N 31°25' E 121°31'4 7.5
2018-Feb-05 06:30N 31°27' E 121°28'6 6.3
2018-Feb-05 05:31N 31°32' E 121°22'3 5.2
2018-Feb-05 05:00N 31°34' E 121°21'0 0.2
2018-Feb-05 04:29N 31°34' E 121°21'0 0.0
2018-Feb-05 03:58N 31°34' E 121°21'0 0.0
2018-Feb-05 03:29N 31°34' E 121°21'0 0.0
2018-Feb-05 02:59N 31°34' E 121°21'0 0.0
2018-Feb-05 02:29N 31°34' E 121°21'0 0.0
2018-Feb-05 01:59N 31°34' E 121°21'0 0.0
2018-Feb-05 01:29N 31°34' E 121°21'0 0.0
2018-Feb-05 00:59N 31°34' E 121°21'0 0.0
2018-Feb-05 00:29N 31°34' E 121°21'0 0.0
2018-Feb-04 23:58N 31°34' E 121°21'0 0.1
2018-Feb-04 23:29N 31°34' E 121°21'0 0.0
2018-Feb-04 22:59N 31°34' E 121°21'0 0.0
2018-Feb-04 22:29N 31°34' E 121°21'0 0.1
2018-Feb-04 21:59N 31°34' E 121°21'0 0.2
2018-Feb-04 21:28N 31°34' E 121°21'0 0.1
2018-Feb-04 20:59N 31°34' E 121°21'0 0.0
2018-Feb-04 19:59N 31°34' E 121°21'0 0.1
2018-Feb-04 19:29N 31°34' E 121°21'0 0.0
2018-Feb-04 18:59N 31°34' E 121°21'0 0.1
2018-Feb-04 18:28N 31°34' E 121°21'0 0.3
2018-Feb-04 17:59N 31°34' E 121°21'0 0.0
2018-Feb-04 17:29N 31°34' E 121°21'0 0.0
2018-Feb-04 15:28N 31°34' E 121°21'0 0.0
2018-Feb-04 14:59N 31°34' E 121°21'0 0.0
2018-Feb-04 14:29N 31°34' E 121°21'0 0.0
2018-Feb-04 13:56N 31°34' E 121°21'0 0.0
2018-Feb-04 13:28N 31°34' E 121°21'0 0.1
2018-Feb-04 13:01N 31°34' E 121°21'1 1.1
2018-Feb-04 12:30N 31°33' E 121°21'5 9.4
2018-Feb-04 12:01N 31°36' E 121°17'713.9
2018-Feb-04 11:30N 31°41' E 121°10'3810.2
2018-Feb-04 07:45N 32°01' E 120°32'513.2
2018-Feb-04 07:23N 32°02' E 120°26'  
Track history (hours):
 
Tides and Currents Weather Stations Pressure Air Temp Water Temp Dewpoint Dewpoint Depression Visibility Wind Speed Wind Dir Waves Ship Positions

Stena Impression

Last reported at 2018-Feb-12 23:56 UTC. Time now 2018-Feb-19 13:43 UTC.
Position N 01°17' E 103°22'.

Length 183 m; draft 7.6 m.

Type: Ship. MMSI: 235108755.

Date/timePositionNaut miles runAvg speedWind from/ knotsBaromVisibWave heightAir tempDewpointWater temp
2018-Feb-12 23:56N 01°17' E 103°22'511.7
2018-Feb-12 23:29N 01°14' E 103°26'713.4
2018-Feb-12 22:59N 01°12' E 103°33'612.6
2018-Feb-12 22:30N 01°11' E 103°39'510.2
2018-Feb-12 21:59N 01°09' E 103°43'511.2
2018-Feb-12 21:31N 01°11' E 103°48'814.7
2018-Feb-12 20:59N 01°14' E 103°55'611.4
2018-Feb-12 20:29N 01°16' E 104°01'  
2018-Feb-07 08:14N 22°43' E 121°44'9012.1
2018-Feb-07 00:48N 24°09' E 122°13'411.5
2018-Feb-07 00:28N 24°12' E 122°15'511.5
2018-Feb-07 00:00N 24°17' E 122°17'611.6
2018-Feb-06 23:30N 24°22' E 122°20'611.4
2018-Feb-06 23:00N 24°28' E 122°21'611.8
2018-Feb-06 22:30N 24°33' E 122°23'611.5
2018-Feb-06 22:00N 24°39' E 122°25'611.8
2018-Feb-06 21:30N 24°44' E 122°27'611.9
2018-Feb-06 21:00N 24°50' E 122°30'611.8
2018-Feb-06 20:30N 24°55' E 122°32'611.4
2018-Feb-06 20:00N 25°01' E 122°34'611.4
2018-Feb-06 19:30N 25°06' E 122°36'36011.2
2018-Feb-05 11:31N 31°06' E 122°32'015.4
2018-Feb-05 11:30N 31°06' E 122°31'612.1
2018-Feb-05 10:58N 31°06' E 122°24'614.1
2018-Feb-05 10:30N 31°07' E 122°16'814.5
2018-Feb-05 09:59N 31°12' E 122°09'714.5
2018-Feb-05 09:30N 31°14' E 122°02'612.8
2018-Feb-05 09:00N 31°16' E 121°54'2210.9
2018-Feb-05 06:58N 31°25' E 121°31'4 7.5
2018-Feb-05 06:30N 31°27' E 121°28'6 6.3
2018-Feb-05 05:31N 31°32' E 121°22'3 5.2
2018-Feb-05 05:00N 31°34' E 121°21'0 0.2
2018-Feb-05 04:29N 31°34' E 121°21'0 0.0
2018-Feb-05 03:58N 31°34' E 121°21'0 0.0
2018-Feb-05 03:29N 31°34' E 121°21'0 0.0
2018-Feb-05 02:59N 31°34' E 121°21'0 0.0
2018-Feb-05 02:29N 31°34' E 121°21'0 0.0
2018-Feb-05 01:59N 31°34' E 121°21'0 0.0
2018-Feb-05 01:29N 31°34' E 121°21'0 0.0
2018-Feb-05 00:59N 31°34' E 121°21'0 0.0
2018-Feb-05 00:29N 31°34' E 121°21'0 0.0
2018-Feb-04 23:58N 31°34' E 121°21'0 0.1
2018-Feb-04 23:29N 31°34' E 121°21'0 0.0
2018-Feb-04 22:59N 31°34' E 121°21'0 0.0
2018-Feb-04 22:29N 31°34' E 121°21'0 0.1
2018-Feb-04 21:59N 31°34' E 121°21'0 0.2
2018-Feb-04 21:28N 31°34' E 121°21'0 0.1
2018-Feb-04 20:59N 31°34' E 121°21'0 0.0
2018-Feb-04 19:59N 31°34' E 121°21'0 0.1
2018-Feb-04 19:29N 31°34' E 121°21'0 0.0
2018-Feb-04 18:59N 31°34' E 121°21'0 0.1
2018-Feb-04 18:28N 31°34' E 121°21'0 0.3
2018-Feb-04 17:59N 31°34' E 121°21'0 0.0
2018-Feb-04 17:29N 31°34' E 121°21'0 0.0
2018-Feb-04 15:28N 31°34' E 121°21'0 0.0
2018-Feb-04 14:59N 31°34' E 121°21'0 0.0
2018-Feb-04 14:29N 31°34' E 121°21'0 0.0
2018-Feb-04 13:56N 31°34' E 121°21'0 0.0
2018-Feb-04 13:28N 31°34' E 121°21'0 0.1
2018-Feb-04 13:01N 31°34' E 121°21'1 1.1
2018-Feb-04 12:30N 31°33' E 121°21'5 9.4
2018-Feb-04 12:01N 31°36' E 121°17'713.9
2018-Feb-04 11:30N 31°41' E 121°10'3810.2
2018-Feb-04 07:45N 32°01' E 120°32'513.2
2018-Feb-04 07:23N 32°02' E 120°26'  

Dump ship's entire track history